sensor_id;sensor_type;location;lat;lon;timestamp;pressure;altitude;pressure_sealevel;temperature;humidity
69257;BME280;56376;53.356;-1.748;2023-04-26T00:02:11;99837.75;;;6.69;75.55
69257;BME280;56376;53.356;-1.748;2023-04-26T00:04:37;99835.19;;;6.67;76.70
69257;BME280;56376;53.356;-1.748;2023-04-26T00:07:03;99830.88;;;6.65;76.32
69257;BME280;56376;53.356;-1.748;2023-04-26T00:09:29;99830.94;;;6.62;76.57
69257;BME280;56376;53.356;-1.748;2023-04-26T00:11:54;99824.09;;;6.58;76.55
69257;BME280;56376;53.356;-1.748;2023-04-26T00:14:20;99829.28;;;6.58;76.79
69257;BME280;56376;53.356;-1.748;2023-04-26T00:16:45;99826.75;;;6.53;76.93
69257;BME280;56376;53.356;-1.748;2023-04-26T00:19:11;99830.25;;;6.50;78.27
69257;BME280;56376;53.356;-1.748;2023-04-26T00:21:37;99823.41;;;6.46;78.90
69257;BME280;56376;53.356;-1.748;2023-04-26T00:24:02;99821.75;;;6.41;79.38
69257;BME280;56376;53.356;-1.748;2023-04-26T00:26:29;99822.72;;;6.35;80.10
69257;BME280;56376;53.356;-1.748;2023-04-26T00:28:55;99814.13;;;6.30;80.30
69257;BME280;56376;53.356;-1.748;2023-04-26T00:31:20;99813.34;;;6.25;81.26
69257;BME280;56376;53.356;-1.748;2023-04-26T00:33:45;99813.41;;;6.20;81.37
69257;BME280;56376;53.356;-1.748;2023-04-26T00:36:11;99814.25;;;6.19;81.92
69257;BME280;56376;53.356;-1.748;2023-04-26T00:38:37;99805.69;;;6.16;82.02
69257;BME280;56376;53.356;-1.748;2023-04-26T00:41:02;99801.44;;;6.10;82.64
69257;BME280;56376;53.356;-1.748;2023-04-26T00:43:27;99802.34;;;6.06;83.03
69257;BME280;56376;53.356;-1.748;2023-04-26T00:45:53;99800.66;;;6.02;83.38
69257;BME280;56376;53.356;-1.748;2023-04-26T00:48:19;99807.59;;;6.01;83.46
69257;BME280;56376;53.356;-1.748;2023-04-26T00:50:45;99805.94;;;5.97;84.22
69257;BME280;56376;53.356;-1.748;2023-04-26T00:53:12;99804.22;;;5.93;84.30
69257;BME280;56376;53.356;-1.748;2023-04-26T00:55:39;99797.38;;;5.88;84.70
69257;BME280;56376;53.356;-1.748;2023-04-26T00:58:05;99792.25;;;5.83;85.35
69257;BME280;56376;53.356;-1.748;2023-04-26T01:00:31;99798.34;;;5.79;85.83
69257;BME280;56376;53.356;-1.748;2023-04-26T01:02:57;99789.72;;;5.77;85.86
69257;BME280;56376;53.356;-1.748;2023-04-26T01:05:22;99787.22;;;5.72;86.08
69257;BME280;56376;53.356;-1.748;2023-04-26T01:07:48;99786.38;;;5.69;86.67
69257;BME280;56376;53.356;-1.748;2023-04-26T01:10:13;99783.84;;;5.64;87.00
69257;BME280;56376;53.356;-1.748;2023-04-26T01:12:39;99789.06;;;5.61;87.54
69257;BME280;56376;53.356;-1.748;2023-04-26T01:15:05;99783.06;;;5.57;87.78
69257;BME280;56376;53.356;-1.748;2023-04-26T01:17:30;99777.03;;;5.54;87.91
69257;BME280;56376;53.356;-1.748;2023-04-26T01:19:56;99778.78;;;5.53;88.36
69257;BME280;56376;53.356;-1.748;2023-04-26T01:22:22;99778.84;;;5.49;88.44
69257;BME280;56376;53.356;-1.748;2023-04-26T01:24:49;99774.53;;;5.46;88.54
69257;BME280;56376;53.356;-1.748;2023-04-26T01:27:15;99775.38;;;5.48;88.44
69257;BME280;56376;53.356;-1.748;2023-04-26T01:29:41;99775.44;;;5.43;88.41
69257;BME280;56376;53.356;-1.748;2023-04-26T01:32:07;99769.41;;;5.43;88.51
69257;BME280;56376;53.356;-1.748;2023-04-26T01:34:32;99760.84;;;5.36;88.73
69257;BME280;56376;53.356;-1.748;2023-04-26T01:36:59;99763.41;;;5.38;88.87
69257;BME280;56376;53.356;-1.748;2023-04-26T01:39:24;99766.84;;;5.40;88.90
69257;BME280;56376;53.356;-1.748;2023-04-26T01:41:50;99775.47;;;5.40;88.34
69257;BME280;56376;53.356;-1.748;2023-04-26T01:44:16;99763.41;;;5.38;88.69
69257;BME280;56376;53.356;-1.748;2023-04-26T01:46:41;99754.75;;;5.39;88.35
69257;BME280;56376;53.356;-1.748;2023-04-26T01:49:06;99753.06;;;5.38;88.15
69257;BME280;56376;53.356;-1.748;2023-04-26T01:51:32;99758.25;;;5.36;88.30
69257;BME280;56376;53.356;-1.748;2023-04-26T01:53:58;99756.53;;;5.37;88.52
69257;BME280;56376;53.356;-1.748;2023-04-26T01:56:23;99746.19;;;5.34;88.03
69257;BME280;56376;53.356;-1.748;2023-04-26T01:58:49;99747.94;;;5.33;88.09
69257;BME280;56376;53.356;-1.748;2023-04-26T02:01:14;99747.97;;;5.32;88.08
69257;BME280;56376;53.356;-1.748;2023-04-26T02:03:40;99746.28;;;5.26;88.31
69257;BME280;56376;53.356;-1.748;2023-04-26T02:06:05;99750.56;;;5.30;88.09
69257;BME280;56376;53.356;-1.748;2023-04-26T02:08:31;99754.88;;;5.30;88.23
69257;BME280;56376;53.356;-1.748;2023-04-26T02:10:57;99752.34;;;5.27;88.08
69257;BME280;56376;53.356;-1.748;2023-04-26T02:13:22;99745.47;;;5.23;88.32
69257;BME280;56376;53.356;-1.748;2023-04-26T02:15:49;99740.31;;;5.19;88.14
69257;BME280;56376;53.356;-1.748;2023-04-26T02:18:15;99744.63;;;5.19;88.18
69257;BME280;56376;53.356;-1.748;2023-04-26T02:20:42;99737.78;;;5.15;88.47
69257;BME280;56376;53.356;-1.748;2023-04-26T02:23:09;99735.19;;;5.13;88.60
69257;BME280;56376;53.356;-1.748;2023-04-26T02:25:35;99727.47;;;5.12;88.62
69257;BME280;56376;53.356;-1.748;2023-04-26T02:28:02;99726.63;;;5.08;88.56
69257;BME280;56376;53.356;-1.748;2023-04-26T02:30:27;99721.53;;;5.02;89.07
69257;BME280;56376;53.356;-1.748;2023-04-26T02:32:53;99724.16;;;4.99;88.88
69257;BME280;56376;53.356;-1.748;2023-04-26T02:35:19;99725.00;;;4.98;89.30
69257;BME280;56376;53.356;-1.748;2023-04-26T02:37:45;99727.63;;;4.96;89.42
69257;BME280;56376;53.356;-1.748;2023-04-26T02:40:13;99721.56;;;4.96;89.35
69257;BME280;56376;53.356;-1.748;2023-04-26T02:42:39;99723.34;;;4.92;89.29
69257;BME280;56376;53.356;-1.748;2023-04-26T02:45:05;99716.50;;;4.84;88.87
69257;BME280;56376;53.356;-1.748;2023-04-26T02:47:31;99707.94;;;4.78;89.35
69257;BME280;56376;53.356;-1.748;2023-04-26T02:49:57;99722.66;;;4.73;89.81
69257;BME280;56376;53.356;-1.748;2023-04-26T02:52:22;99721.84;;;4.70;90.13
69257;BME280;56376;53.356;-1.748;2023-04-26T02:54:48;99717.59;;;4.63;90.46
69257;BME280;56376;53.356;-1.748;2023-04-26T02:57:13;99714.19;;;4.59;90.57
69257;BME280;56376;53.356;-1.748;2023-04-26T02:59:38;99721.09;;;4.55;91.28
69257;BME280;56376;53.356;-1.748;2023-04-26T03:02:04;99719.38;;;4.53;91.05
69257;BME280;56376;53.356;-1.748;2023-04-26T03:04:32;99715.97;;;4.51;91.31
69257;BME280;56376;53.356;-1.748;2023-04-26T03:06:58;99711.69;;;4.45;91.11
69257;BME280;56376;53.356;-1.748;2023-04-26T03:09:23;99709.16;;;4.41;91.65
69257;BME280;56376;53.356;-1.748;2023-04-26T03:11:49;99707.50;;;4.33;92.13
69257;BME280;56376;53.356;-1.748;2023-04-26T03:14:14;99716.16;;;4.31;92.60
69257;BME280;56376;53.356;-1.748;2023-04-26T03:16:40;99717.84;;;4.32;92.83
69257;BME280;56376;53.356;-1.748;2023-04-26T03:19:07;99710.09;;;4.30;92.78
69257;BME280;56376;53.356;-1.748;2023-04-26T03:21:32;99704.91;;;4.30;92.89
69257;BME280;56376;53.356;-1.748;2023-04-26T03:23:58;99711.84;;;4.28;92.63
69257;BME280;56376;53.356;-1.748;2023-04-26T03:26:23;99703.25;;;4.26;92.92
69257;BME280;56376;53.356;-1.748;2023-04-26T03:28:48;99710.13;;;4.27;92.80
69257;BME280;56376;53.356;-1.748;2023-04-26T03:31:14;99699.84;;;4.21;92.88
69257;BME280;56376;53.356;-1.748;2023-04-26T03:33:39;99697.28;;;4.17;93.01
69257;BME280;56376;53.356;-1.748;2023-04-26T03:36:04;99705.91;;;4.16;93.22
69257;BME280;56376;53.356;-1.748;2023-04-26T03:38:30;99701.66;;;4.08;93.69
69257;BME280;56376;53.356;-1.748;2023-04-26T03:40:56;99701.66;;;4.07;94.70
69257;BME280;56376;53.356;-1.748;2023-04-26T03:43:21;99706.84;;;4.07;94.83
69257;BME280;56376;53.356;-1.748;2023-04-26T03:45:47;99708.56;;;4.06;95.06
69257;BME280;56376;53.356;-1.748;2023-04-26T03:48:13;99704.25;;;4.05;95.18
69257;BME280;56376;53.356;-1.748;2023-04-26T03:50:38;99702.53;;;4.06;95.45
69257;BME280;56376;53.356;-1.748;2023-04-26T03:53:04;99697.38;;;4.04;96.02
69257;BME280;56376;53.356;-1.748;2023-04-26T03:55:29;99697.34;;;4.09;96.20
69257;BME280;56376;53.356;-1.748;2023-04-26T03:57:55;99693.91;;;4.08;96.35
69257;BME280;56376;53.356;-1.748;2023-04-26T04:00:20;99702.50;;;4.09;95.86
69257;BME280;56376;53.356;-1.748;2023-04-26T04:02:45;99691.31;;;4.07;96.15
69257;BME280;56376;53.356;-1.748;2023-04-26T04:05:11;99700.78;;;4.09;96.25
69257;BME280;56376;53.356;-1.748;2023-04-26T04:07:36;99685.31;;;4.05;96.07
69257;BME280;56376;53.356;-1.748;2023-04-26T04:10:02;99686.16;;;4.08;95.85
69257;BME280;56376;53.356;-1.748;2023-04-26T04:12:28;99687.00;;;4.09;95.75
69257;BME280;56376;53.356;-1.748;2023-04-26T04:14:53;99678.41;;;4.07;95.90
69257;BME280;56376;53.356;-1.748;2023-04-26T04:17:18;99676.69;;;4.06;95.88
69257;BME280;56376;53.356;-1.748;2023-04-26T04:19:44;99675.00;;;4.03;95.82
69257;BME280;56376;53.356;-1.748;2023-04-26T04:22:10;99683.59;;;4.04;95.76
69257;BME280;56376;53.356;-1.748;2023-04-26T04:24:35;99684.47;;;4.01;95.92
69257;BME280;56376;53.356;-1.748;2023-04-26T04:27:01;99685.31;;;4.02;96.38
69257;BME280;56376;53.356;-1.748;2023-04-26T04:29:27;99677.56;;;4.00;96.75
69257;BME280;56376;53.356;-1.748;2023-04-26T04:31:53;99675.03;;;3.99;97.40
69257;BME280;56376;53.356;-1.748;2023-04-26T04:34:18;99677.63;;;3.96;97.16
69257;BME280;56376;53.356;-1.748;2023-04-26T04:36:44;99681.94;;;3.94;97.05
69257;BME280;56376;53.356;-1.748;2023-04-26T04:39:09;99688.00;;;3.91;97.48
69257;BME280;56376;53.356;-1.748;2023-04-26T04:41:40;99695.75;;;3.91;97.71
69257;BME280;56376;53.356;-1.748;2023-04-26T04:44:12;99697.47;;;3.87;97.73
69257;BME280;56376;53.356;-1.748;2023-04-26T04:46:39;99689.78;;;3.81;98.10
69257;BME280;56376;53.356;-1.748;2023-04-26T04:49:05;99694.94;;;3.81;98.36
69257;BME280;56376;53.356;-1.748;2023-04-26T04:51:34;99696.69;;;3.79;98.39
69257;BME280;56376;53.356;-1.748;2023-04-26T04:54:08;99702.72;;;3.75;98.59
69257;BME280;56376;53.356;-1.748;2023-04-26T04:56:34;99701.03;;;3.71;98.16
69257;BME280;56376;53.356;-1.748;2023-04-26T04:58:59;99701.91;;;3.67;98.52
69257;BME280;56376;53.356;-1.748;2023-04-26T05:01:24;99695.06;;;3.63;98.63
69257;BME280;56376;53.356;-1.748;2023-04-26T05:03:50;99701.97;;;3.61;98.88
69257;BME280;56376;53.356;-1.748;2023-04-26T05:06:16;99696.81;;;3.55;98.64
69257;BME280;56376;53.356;-1.748;2023-04-26T05:08:41;99703.69;;;3.53;98.40
69257;BME280;56376;53.356;-1.748;2023-04-26T05:11:07;99708.00;;;3.52;98.60
69257;BME280;56376;53.356;-1.748;2023-04-26T05:13:32;99705.47;;;3.46;98.45
69257;BME280;56376;53.356;-1.748;2023-04-26T05:15:58;99704.63;;;3.45;98.45
69257;BME280;56376;53.356;-1.748;2023-04-26T05:18:23;99696.03;;;3.40;99.05
69257;BME280;56376;53.356;-1.748;2023-04-26T05:20:48;99701.16;;;3.42;99.21
69257;BME280;56376;53.356;-1.748;2023-04-26T05:23:14;99707.22;;;3.41;99.35
69257;BME280;56376;53.356;-1.748;2023-04-26T05:25:39;99704.66;;;3.36;99.46
69257;BME280;56376;53.356;-1.748;2023-04-26T05:28:04;99702.03;;;3.39;99.29
69257;BME280;56376;53.356;-1.748;2023-04-26T05:30:32;99705.47;;;3.40;99.46
69257;BME280;56376;53.356;-1.748;2023-04-26T05:32:57;99708.06;;;3.43;99.28
69257;BME280;56376;53.356;-1.748;2023-04-26T05:35:22;99708.03;;;3.44;99.30
69257;BME280;56376;53.356;-1.748;2023-04-26T05:37:48;99710.63;;;3.44;99.66
69257;BME280;56376;53.356;-1.748;2023-04-26T05:40:13;99706.31;;;3.45;100.00
69257;BME280;56376;53.356;-1.748;2023-04-26T05:42:39;99702.88;;;3.46;100.00
69257;BME280;56376;53.356;-1.748;2023-04-26T05:45:05;99708.06;;;3.46;100.00
69257;BME280;56376;53.356;-1.748;2023-04-26T05:47:30;99699.44;;;3.44;100.00
69257;BME280;56376;53.356;-1.748;2023-04-26T05:49:56;99703.75;;;3.46;100.00
69257;BME280;56376;53.356;-1.748;2023-04-26T05:52:21;99708.91;;;3.48;100.00
69257;BME280;56376;53.356;-1.748;2023-04-26T05:54:46;99703.75;;;3.48;100.00
69257;BME280;56376;53.356;-1.748;2023-04-26T05:57:12;99711.47;;;3.56;100.00
69257;BME280;56376;53.356;-1.748;2023-04-26T05:59:38;99712.25;;;3.64;100.00
69257;BME280;56376;53.356;-1.748;2023-04-26T06:02:04;99705.34;;;3.67;100.00
69257;BME280;56376;53.356;-1.748;2023-04-26T06:04:29;99707.94;;;3.71;100.00
69257;BME280;56376;53.356;-1.748;2023-04-26T06:06:55;99699.31;;;3.70;100.00
69257;BME280;56376;53.356;-1.748;2023-04-26T06:09:20;99713.94;;;3.73;100.00
69257;BME280;56376;53.356;-1.748;2023-04-26T06:11:45;99712.22;;;3.72;100.00
69257;BME280;56376;53.356;-1.748;2023-04-26T06:14:11;99712.22;;;3.72;100.00
69257;BME280;56376;53.356;-1.748;2023-04-26T06:16:36;99708.75;;;3.77;100.00
69257;BME280;56376;53.356;-1.748;2023-04-26T06:19:01;99706.09;;;3.86;100.00
69257;BME280;56376;53.356;-1.748;2023-04-26T06:21:27;99704.31;;;3.98;100.00
69257;BME280;56376;53.356;-1.748;2023-04-26T06:23:52;99711.97;;;4.10;100.00
69257;BME280;56376;53.356;-1.748;2023-04-26T06:26:18;99708.41;;;4.23;100.00
69257;BME280;56376;53.356;-1.748;2023-04-26T06:28:43;99719.56;;;4.36;100.00
69257;BME280;56376;53.356;-1.748;2023-04-26T06:31:08;99716.84;;;4.48;99.62
69257;BME280;56376;53.356;-1.748;2023-04-26T06:33:34;99705.56;;;4.57;99.35
69257;BME280;56376;53.356;-1.748;2023-04-26T06:35:59;99710.63;;;4.68;98.22
69257;BME280;56376;53.356;-1.748;2023-04-26T06:38:25;99721.75;;;4.79;97.44
69257;BME280;56376;53.356;-1.748;2023-04-26T06:40:50;99714.81;;;4.81;96.67
69257;BME280;56376;53.356;-1.748;2023-04-26T06:43:16;99713.06;;;4.85;97.07
69257;BME280;56376;53.356;-1.748;2023-04-26T06:45:41;99707.91;;;4.85;97.20
69257;BME280;56376;53.356;-1.748;2023-04-26T06:48:06;99713.06;;;4.85;97.26
69257;BME280;56376;53.356;-1.748;2023-04-26T06:50:32;99713.91;;;4.85;97.05
69257;BME280;56376;53.356;-1.748;2023-04-26T06:52:58;99712.22;;;4.83;97.39
69257;BME280;56376;53.356;-1.748;2023-04-26T06:55:23;99715.66;;;4.83;97.96
69257;BME280;56376;53.356;-1.748;2023-04-26T06:57:49;99720.81;;;4.86;98.66
69257;BME280;56376;53.356;-1.748;2023-04-26T07:00:15;99714.72;;;4.89;98.68
69257;BME280;56376;53.356;-1.748;2023-04-26T07:02:41;99716.47;;;4.90;98.55
69257;BME280;56376;53.356;-1.748;2023-04-26T07:05:07;99710.41;;;4.91;98.48
69257;BME280;56376;53.356;-1.748;2023-04-26T07:07:32;99722.44;;;4.95;97.44
69257;BME280;56376;53.356;-1.748;2023-04-26T07:09:58;99714.69;;;4.96;96.95
69257;BME280;56376;53.356;-1.748;2023-04-26T07:12:23;99717.28;;;4.96;96.29
69257;BME280;56376;53.356;-1.748;2023-04-26T07:14:49;99703.44;;;4.97;95.93
69257;BME280;56376;53.356;-1.748;2023-04-26T07:17:14;99705.19;;;4.97;95.71
69257;BME280;56376;53.356;-1.748;2023-04-26T07:19:40;99708.59;;;5.01;95.62
69257;BME280;56376;53.356;-1.748;2023-04-26T07:22:05;99707.69;;;5.03;95.67
69257;BME280;56376;53.356;-1.748;2023-04-26T07:24:31;99724.03;;;5.08;95.82
69257;BME280;56376;53.356;-1.748;2023-04-26T07:26:56;99722.25;;;5.13;95.71
69257;BME280;56376;53.356;-1.748;2023-04-26T07:29:22;99715.31;;;5.15;96.04
69257;BME280;56376;53.356;-1.748;2023-04-26T07:31:47;99706.66;;;5.16;96.08
69257;BME280;56376;53.356;-1.748;2023-04-26T07:34:13;99711.00;;;5.17;96.11
69257;BME280;56376;53.356;-1.748;2023-04-26T07:36:38;99705.72;;;5.24;96.06
69257;BME280;56376;53.356;-1.748;2023-04-26T07:39:03;99706.53;;;5.30;95.71
69257;BME280;56376;53.356;-1.748;2023-04-26T07:41:30;99709.06;;;5.35;95.90
69257;BME280;56376;53.356;-1.748;2023-04-26T07:43:56;99705.53;;;5.40;96.03
69257;BME280;56376;53.356;-1.748;2023-04-26T07:46:22;99706.34;;;5.46;95.80
69257;BME280;56376;53.356;-1.748;2023-04-26T07:48:48;99695.91;;;5.50;95.40
69257;BME280;56376;53.356;-1.748;2023-04-26T07:51:13;99702.75;;;5.57;95.48
69257;BME280;56376;53.356;-1.748;2023-04-26T07:53:39;99700.88;;;5.67;94.98
69257;BME280;56376;53.356;-1.748;2023-04-26T07:56:06;99702.47;;;5.77;94.33
69257;BME280;56376;53.356;-1.748;2023-04-26T07:58:35;99704.00;;;5.89;94.16
69257;BME280;56376;53.356;-1.748;2023-04-26T08:01:01;99699.53;;;6.02;93.55
69257;BME280;56376;53.356;-1.748;2023-04-26T08:03:26;99696.81;;;6.10;92.93
69257;BME280;56376;53.356;-1.748;2023-04-26T08:05:52;99701.88;;;6.19;92.10
69257;BME280;56376;53.356;-1.748;2023-04-26T08:08:18;99706.88;;;6.29;91.59
69257;BME280;56376;53.356;-1.748;2023-04-26T08:10:44;99700.75;;;6.35;91.44
69257;BME280;56376;53.356;-1.748;2023-04-26T08:13:10;99702.41;;;6.39;90.41
69257;BME280;56376;53.356;-1.748;2023-04-26T08:15:35;99699.75;;;6.44;89.42
69257;BME280;56376;53.356;-1.748;2023-04-26T08:18:01;99695.34;;;6.47;90.08
69257;BME280;56376;53.356;-1.748;2023-04-26T08:20:26;99691.81;;;6.52;89.52
69257;BME280;56376;53.356;-1.748;2023-04-26T08:22:55;99696.09;;;6.54;89.38
69257;BME280;56376;53.356;-1.748;2023-04-26T08:25:21;99694.34;;;6.56;89.63
69257;BME280;56376;53.356;-1.748;2023-04-26T08:27:47;99699.41;;;6.62;89.64
69257;BME280;56376;53.356;-1.748;2023-04-26T08:30:13;99693.28;;;6.68;88.90
69257;BME280;56376;53.356;-1.748;2023-04-26T08:32:38;99682.84;;;6.69;87.90
69257;BME280;56376;53.356;-1.748;2023-04-26T08:35:05;99701.75;;;6.78;87.58
69257;BME280;56376;53.356;-1.748;2023-04-26T08:37:30;99688.69;;;6.82;87.40
69257;BME280;56376;53.356;-1.748;2023-04-26T08:39:56;99694.59;;;6.90;87.20
69257;BME280;56376;53.356;-1.748;2023-04-26T08:42:25;99691.81;;;7.01;87.06
69257;BME280;56376;53.356;-1.748;2023-04-26T08:44:52;99683.72;;;7.15;87.04
69257;BME280;56376;53.356;-1.748;2023-04-26T08:47:21;99687.75;;;7.30;87.20
69257;BME280;56376;53.356;-1.748;2023-04-26T08:49:50;99680.44;;;7.49;87.87
69257;BME280;56376;53.356;-1.748;2023-04-26T08:52:22;99688.75;;;7.66;86.37
69257;BME280;56376;53.356;-1.748;2023-04-26T08:54:49;99679.72;;;7.81;85.10
69257;BME280;56376;53.356;-1.748;2023-04-26T08:57:18;99685.53;;;7.94;84.41
69257;BME280;56376;53.356;-1.748;2023-04-26T08:59:43;99687.03;;;8.04;82.75
69257;BME280;56376;53.356;-1.748;2023-04-26T09:02:16;99671.09;;;8.16;81.89
69257;BME280;56376;53.356;-1.748;2023-04-26T09:04:43;99675.97;;;8.30;80.56
69257;BME280;56376;53.356;-1.748;2023-04-26T09:07:10;99678.25;;;8.44;79.01
69257;BME280;56376;53.356;-1.748;2023-04-26T09:09:46;99670.13;;;8.56;77.69
69257;BME280;56376;53.356;-1.748;2023-04-26T09:12:13;99672.41;;;8.70;77.40
69257;BME280;56376;53.356;-1.748;2023-04-26T09:14:40;99665.97;;;8.82;76.43
69257;BME280;56376;53.356;-1.748;2023-04-26T09:17:05;99669.16;;;8.93;75.30
69257;BME280;56376;53.356;-1.748;2023-04-26T09:19:48;99666.09;;;9.10;74.82
69257;BME280;56376;53.356;-1.748;2023-04-26T09:22:13;99666.50;;;9.26;75.42
69257;BME280;56376;53.356;-1.748;2023-04-26T09:24:46;99669.41;;;9.46;75.19
69257;BME280;56376;53.356;-1.748;2023-04-26T09:27:12;99663.81;;;9.59;75.02
69257;BME280;56376;53.356;-1.748;2023-04-26T09:29:38;99672.16;;;9.70;72.31
69257;BME280;56376;53.356;-1.748;2023-04-26T09:32:03;99668.47;;;9.77;70.45
69257;BME280;56376;53.356;-1.748;2023-04-26T09:34:43;99664.72;;;9.86;68.60
69257;BME280;56376;53.356;-1.748;2023-04-26T09:37:09;99668.75;;;9.96;66.12
69257;BME280;56376;53.356;-1.748;2023-04-26T09:39:39;99659.63;;;10.09;65.78
69257;BME280;56376;53.356;-1.748;2023-04-26T09:42:06;99667.81;;;10.25;65.05
69257;BME280;56376;53.356;-1.748;2023-04-26T09:44:31;99671.53;;;10.46;64.10
69257;BME280;56376;53.356;-1.748;2023-04-26T09:47:05;99655.00;;;10.71;61.65
69257;BME280;56376;53.356;-1.748;2023-04-26T09:49:32;99656.75;;;10.95;58.88
69257;BME280;56376;53.356;-1.748;2023-04-26T09:52:03;99653.38;;;11.17;55.47
69257;BME280;56376;53.356;-1.748;2023-04-26T09:57:11;99652.84;;;11.54;54.09
69257;BME280;56376;53.356;-1.748;2023-04-26T10:02:12;99652.63;;;11.82;52.68
69257;BME280;56376;53.356;-1.748;2023-04-26T10:04:38;99652.22;;;11.93;51.83
69257;BME280;56376;53.356;-1.748;2023-04-26T10:07:04;99653.50;;;12.05;49.79
69257;BME280;56376;53.356;-1.748;2023-04-26T10:09:30;99646.13;;;12.15;49.99
69257;BME280;56376;53.356;-1.748;2023-04-26T10:11:57;99649.28;;;12.23;49.89
69257;BME280;56376;53.356;-1.748;2023-04-26T10:14:23;99647.19;;;12.31;48.43
69257;BME280;56376;53.356;-1.748;2023-04-26T10:16:49;99640.00;;;12.36;48.55
69257;BME280;56376;53.356;-1.748;2023-04-26T10:19:15;99648.03;;;12.31;49.88
69257;BME280;56376;53.356;-1.748;2023-04-26T10:21:40;99644.94;;;12.22;50.80
69257;BME280;56376;53.356;-1.748;2023-04-26T10:24:09;99642.94;;;12.06;52.21
69257;BME280;56376;53.356;-1.748;2023-04-26T10:26:51;99645.38;;;11.89;53.73
69257;BME280;56376;53.356;-1.748;2023-04-26T10:32:19;99635.22;;;11.59;51.68
69257;BME280;56376;53.356;-1.748;2023-04-26T10:35:11;99639.25;;;11.44;51.83
69257;BME280;56376;53.356;-1.748;2023-04-26T10:40:30;99630.44;;;11.23;51.66
69257;BME280;56376;53.356;-1.748;2023-04-26T10:45:34;99631.13;;;11.05;52.40
69257;BME280;56376;53.356;-1.748;2023-04-26T10:56:08;99629.47;;;10.79;54.03
69257;BME280;56376;53.356;-1.748;2023-04-26T10:58:34;99635.75;;;10.73;54.70
69257;BME280;56376;53.356;-1.748;2023-04-26T11:01:07;99634.16;;;10.69;55.10
69257;BME280;56376;53.356;-1.748;2023-04-26T11:03:32;99624.66;;;10.67;55.26
69257;BME280;56376;53.356;-1.748;2023-04-26T11:05:58;99628.16;;;10.66;56.25
69257;BME280;56376;53.356;-1.748;2023-04-26T11:08:25;99629.09;;;10.65;57.00
69257;BME280;56376;53.356;-1.748;2023-04-26T11:10:58;99630.00;;;10.64;56.08
69257;BME280;56376;53.356;-1.748;2023-04-26T11:13:23;99636.22;;;10.59;56.58
69257;BME280;56376;53.356;-1.748;2023-04-26T11:15:53;99626.78;;;10.55;56.93
69257;BME280;56376;53.356;-1.748;2023-04-26T11:18:22;99625.13;;;10.53;56.94
69257;BME280;56376;53.356;-1.748;2023-04-26T11:20:48;99625.13;;;10.53;57.76
69257;BME280;56376;53.356;-1.748;2023-04-26T11:23:13;99627.84;;;10.50;57.82
69257;BME280;56376;53.356;-1.748;2023-04-26T11:25:39;99627.94;;;10.48;57.60
69257;BME280;56376;53.356;-1.748;2023-04-26T11:28:05;99632.34;;;10.46;57.29
69257;BME280;56376;53.356;-1.748;2023-04-26T11:30:32;99629.78;;;10.45;57.06
69257;BME280;56376;53.356;-1.748;2023-04-26T11:32:58;99629.66;;;10.48;56.71
69257;BME280;56376;53.356;-1.748;2023-04-26T11:35:24;99633.16;;;10.48;57.00
69257;BME280;56376;53.356;-1.748;2023-04-26T11:37:51;99635.78;;;10.48;57.04
69257;BME280;56376;53.356;-1.748;2023-04-26T11:40:17;99644.38;;;10.50;56.59
69257;BME280;56376;53.356;-1.748;2023-04-26T11:42:43;99634.84;;;10.49;56.83
69257;BME280;56376;53.356;-1.748;2023-04-26T11:45:09;99639.13;;;10.52;56.51
69257;BME280;56376;53.356;-1.748;2023-04-26T11:47:35;99632.19;;;10.51;56.50
69257;BME280;56376;53.356;-1.748;2023-04-26T11:50:01;99641.84;;;10.49;56.76
69257;BME280;56376;53.356;-1.748;2023-04-26T11:52:28;99630.53;;;10.48;57.74
69257;BME280;56376;53.356;-1.748;2023-04-26T11:55:01;99633.94;;;10.50;58.09
69257;BME280;56376;53.356;-1.748;2023-04-26T11:57:29;99639.25;;;10.47;58.28
69257;BME280;56376;53.356;-1.748;2023-04-26T12:00:08;99635.81;;;10.47;58.02
69257;BME280;56376;53.356;-1.748;2023-04-26T12:02:37;99645.41;;;10.46;58.11
69257;BME280;56376;53.356;-1.748;2023-04-26T12:05:02;99642.00;;;10.44;57.60
69257;BME280;56376;53.356;-1.748;2023-04-26T12:07:34;99638.53;;;10.44;57.28
69257;BME280;56376;53.356;-1.748;2023-04-26T12:10:16;99644.53;;;10.46;56.33
69257;BME280;56376;53.356;-1.748;2023-04-26T12:12:49;99635.00;;;10.45;55.59
69257;BME280;56376;53.356;-1.748;2023-04-26T12:15:22;99635.09;;;10.42;55.03
69257;BME280;56376;53.356;-1.748;2023-04-26T12:17:55;99640.38;;;10.40;54.72
69257;BME280;56376;53.356;-1.748;2023-04-26T12:20:32;99645.66;;;10.38;54.38
69257;BME280;56376;53.356;-1.748;2023-04-26T12:22:58;99638.72;;;10.37;54.46
69257;BME280;56376;53.356;-1.748;2023-04-26T12:25:24;99635.31;;;10.35;54.54
69257;BME280;56376;53.356;-1.748;2023-04-26T12:27:49;99636.91;;;10.39;54.50
69257;BME280;56376;53.356;-1.748;2023-04-26T12:30:15;99635.09;;;10.42;53.62
69257;BME280;56376;53.356;-1.748;2023-04-26T12:32:40;99628.22;;;10.39;53.41
69257;BME280;56376;53.356;-1.748;2023-04-26T12:35:06;99633.47;;;10.39;53.52
69257;BME280;56376;53.356;-1.748;2023-04-26T12:37:31;99630.69;;;10.44;53.99
69257;BME280;56376;53.356;-1.748;2023-04-26T12:39:57;99640.09;;;10.48;54.27
69257;BME280;56376;53.356;-1.748;2023-04-26T12:42:22;99639.22;;;10.49;53.78
69257;BME280;56376;53.356;-1.748;2023-04-26T12:44:48;99629.63;;;10.49;53.65
69257;BME280;56376;53.356;-1.748;2023-04-26T12:47:13;99628.78;;;10.49;52.96
69257;BME280;56376;53.356;-1.748;2023-04-26T12:49:38;99636.50;;;10.52;52.71
69257;BME280;56376;53.356;-1.748;2023-04-26T12:52:04;99627.75;;;10.53;53.10
69257;BME280;56376;53.356;-1.748;2023-04-26T12:54:29;99636.34;;;10.56;53.98
69257;BME280;56376;53.356;-1.748;2023-04-26T12:56:54;99636.22;;;10.59;54.40
69257;BME280;56376;53.356;-1.748;2023-04-26T12:59:20;99647.41;;;10.63;54.36
69257;BME280;56376;53.356;-1.748;2023-04-26T13:01:45;99636.88;;;10.66;54.12
69257;BME280;56376;53.356;-1.748;2023-04-26T13:04:11;99641.16;;;10.69;53.43
69257;BME280;56376;53.356;-1.748;2023-04-26T13:06:37;99645.31;;;10.74;52.51
69257;BME280;56376;53.356;-1.748;2023-04-26T13:09:02;99642.72;;;10.73;51.72
69257;BME280;56376;53.356;-1.748;2023-04-26T13:11:28;99643.56;;;10.73;51.07
69257;BME280;56376;53.356;-1.748;2023-04-26T13:13:53;99647.97;;;10.73;50.95
69257;BME280;56376;53.356;-1.748;2023-04-26T13:16:18;99655.69;;;10.76;51.00